sensor_id;sensor_type;location;lat;lon;timestamp;P1;durP1;ratioP1;P2;durP2;ratioP2
57125;SDS011;43000;50.770;6.110;2022-08-19T00:00:44;9.25;;;8.35;;
57125;SDS011;43000;50.770;6.110;2022-08-19T00:03:11;10.88;;;9.43;;
57125;SDS011;43000;50.770;6.110;2022-08-19T00:05:39;10.50;;;9.50;;
57125;SDS011;43000;50.770;6.110;2022-08-19T00:08:07;11.88;;;10.57;;
57125;SDS011;43000;50.770;6.110;2022-08-19T00:10:34;12.25;;;11.07;;
57125;SDS011;43000;50.770;6.110;2022-08-19T00:13:00;11.95;;;10.05;;
57125;SDS011;43000;50.770;6.110;2022-08-19T00:15:27;10.10;;;9.02;;
57125;SDS011;43000;50.770;6.110;2022-08-19T00:17:53;11.25;;;10.05;;
57125;SDS011;43000;50.770;6.110;2022-08-19T00:20:20;12.35;;;10.20;;
57125;SDS011;43000;50.770;6.110;2022-08-19T00:22:49;10.75;;;9.55;;
57125;SDS011;43000;50.770;6.110;2022-08-19T00:25:16;10.07;;;8.93;;
57125;SDS011;43000;50.770;6.110;2022-08-19T00:27:43;12.90;;;9.80;;
57125;SDS011;43000;50.770;6.110;2022-08-19T00:30:10;11.73;;;9.73;;
57125;SDS011;43000;50.770;6.110;2022-08-19T00:32:37;13.13;;;11.73;;
57125;SDS011;43000;50.770;6.110;2022-08-19T00:35:05;10.48;;;9.55;;
57125;SDS011;43000;50.770;6.110;2022-08-19T00:37:32;12.63;;;11.48;;
57125;SDS011;43000;50.770;6.110;2022-08-19T00:40:01;16.70;;;11.57;;
57125;SDS011;43000;50.770;6.110;2022-08-19T00:42:29;17.00;;;10.98;;
57125;SDS011;43000;50.770;6.110;2022-08-19T00:44:56;11.38;;;10.32;;
57125;SDS011;43000;50.770;6.110;2022-08-19T00:47:22;13.07;;;11.77;;
57125;SDS011;43000;50.770;6.110;2022-08-19T00:49:50;13.30;;;12.10;;
57125;SDS011;43000;50.770;6.110;2022-08-19T00:52:21;12.57;;;11.30;;
57125;SDS011;43000;50.770;6.110;2022-08-19T00:54:50;12.93;;;10.75;;
57125;SDS011;43000;50.770;6.110;2022-08-19T00:57:21;14.05;;;12.65;;
57125;SDS011;43000;50.770;6.110;2022-08-19T00:59:52;15.48;;;13.98;;
57125;SDS011;43000;50.770;6.110;2022-08-19T01:02:21;14.02;;;12.57;;
57125;SDS011;43000;50.770;6.110;2022-08-19T01:04:48;12.93;;;11.68;;
57125;SDS011;43000;50.770;6.110;2022-08-19T01:07:15;16.85;;;13.88;;
57125;SDS011;43000;50.770;6.110;2022-08-19T01:09:41;13.85;;;12.45;;
57125;SDS011;43000;50.770;6.110;2022-08-19T01:12:08;13.88;;;12.48;;
57125;SDS011;43000;50.770;6.110;2022-08-19T01:14:36;16.30;;;13.23;;
57125;SDS011;43000;50.770;6.110;2022-08-19T01:17:06;13.65;;;12.45;;
57125;SDS011;43000;50.770;6.110;2022-08-19T01:19:35;14.05;;;12.68;;
57125;SDS011;43000;50.770;6.110;2022-08-19T01:22:06;13.60;;;12.25;;
57125;SDS011;43000;50.770;6.110;2022-08-19T01:24:40;17.38;;;15.77;;
57125;SDS011;43000;50.770;6.110;2022-08-19T01:27:07;16.02;;;14.32;;
57125;SDS011;43000;50.770;6.110;2022-08-19T01:29:34;16.08;;;14.48;;
57125;SDS011;43000;50.770;6.110;2022-08-19T01:32:04;17.40;;;13.18;;
57125;SDS011;43000;50.770;6.110;2022-08-19T01:34:31;15.20;;;13.50;;
57125;SDS011;43000;50.770;6.110;2022-08-19T01:36:59;19.85;;;14.02;;
57125;SDS011;43000;50.770;6.110;2022-08-19T01:39:27;14.88;;;13.50;;
57125;SDS011;43000;50.770;6.110;2022-08-19T01:41:55;15.98;;;14.50;;
57125;SDS011;43000;50.770;6.110;2022-08-19T01:44:21;16.33;;;14.63;;
57125;SDS011;43000;50.770;6.110;2022-08-19T01:46:50;16.85;;;15.18;;
57125;SDS011;43000;50.770;6.110;2022-08-19T01:49:18;14.65;;;13.18;;
57125;SDS011;43000;50.770;6.110;2022-08-19T01:51:47;16.08;;;14.38;;
57125;SDS011;43000;50.770;6.110;2022-08-19T01:54:14;16.02;;;14.52;;
57125;SDS011;43000;50.770;6.110;2022-08-19T01:56:42;17.60;;;15.43;;
57125;SDS011;43000;50.770;6.110;2022-08-19T01:59:12;17.65;;;16.00;;
57125;SDS011;43000;50.770;6.110;2022-08-19T02:01:40;16.75;;;14.80;;
57125;SDS011;43000;50.770;6.110;2022-08-19T02:04:07;19.27;;;17.42;;
57125;SDS011;43000;50.770;6.110;2022-08-19T02:06:34;20.08;;;18.15;;
57125;SDS011;43000;50.770;6.110;2022-08-19T02:09:00;19.05;;;17.08;;
57125;SDS011;43000;50.770;6.110;2022-08-19T02:11:28;17.45;;;15.80;;
57125;SDS011;43000;50.770;6.110;2022-08-19T02:13:58;17.75;;;16.02;;
57125;SDS011;43000;50.770;6.110;2022-08-19T02:16:28;18.98;;;17.00;;
57125;SDS011;43000;50.770;6.110;2022-08-19T02:18:55;17.15;;;15.35;;
57125;SDS011;43000;50.770;6.110;2022-08-19T02:21:22;16.55;;;13.73;;
57125;SDS011;43000;50.770;6.110;2022-08-19T02:23:49;17.25;;;15.60;;
57125;SDS011;43000;50.770;6.110;2022-08-19T02:26:16;17.92;;;15.73;;
57125;SDS011;43000;50.770;6.110;2022-08-19T02:28:44;18.38;;;16.55;;
57125;SDS011;43000;50.770;6.110;2022-08-19T02:31:11;19.85;;;17.83;;
57125;SDS011;43000;50.770;6.110;2022-08-19T02:33:41;19.15;;;17.27;;
57125;SDS011;43000;50.770;6.110;2022-08-19T02:36:08;17.10;;;15.40;;
57125;SDS011;43000;50.770;6.110;2022-08-19T02:38:37;18.63;;;16.27;;
57125;SDS011;43000;50.770;6.110;2022-08-19T02:41:04;18.10;;;16.25;;
57125;SDS011;43000;50.770;6.110;2022-08-19T02:43:34;22.35;;;18.48;;
57125;SDS011;43000;50.770;6.110;2022-08-19T02:46:02;19.38;;;17.50;;
57125;SDS011;43000;50.770;6.110;2022-08-19T02:48:36;24.30;;;17.90;;
57125;SDS011;43000;50.770;6.110;2022-08-19T02:51:04;19.63;;;17.73;;
57125;SDS011;43000;50.770;6.110;2022-08-19T02:53:31;20.95;;;17.50;;
57125;SDS011;43000;50.770;6.110;2022-08-19T02:55:58;20.88;;;18.67;;
57125;SDS011;43000;50.770;6.110;2022-08-19T02:58:24;20.15;;;18.05;;
57125;SDS011;43000;50.770;6.110;2022-08-19T03:00:52;19.92;;;18.13;;
57125;SDS011;43000;50.770;6.110;2022-08-19T03:03:19;20.35;;;18.33;;
57125;SDS011;43000;50.770;6.110;2022-08-19T03:05:46;18.48;;;16.58;;
57125;SDS011;43000;50.770;6.110;2022-08-19T03:08:14;18.85;;;16.23;;
57125;SDS011;43000;50.770;6.110;2022-08-19T03:10:42;19.17;;;16.77;;
57125;SDS011;43000;50.770;6.110;2022-08-19T03:13:11;18.08;;;16.25;;
57125;SDS011;43000;50.770;6.110;2022-08-19T03:15:39;18.70;;;16.80;;
57125;SDS011;43000;50.770;6.110;2022-08-19T03:18:07;20.38;;;16.50;;
57125;SDS011;43000;50.770;6.110;2022-08-19T03:20:33;24.15;;;19.95;;
57125;SDS011;43000;50.770;6.110;2022-08-19T03:23:05;19.35;;;17.17;;
57125;SDS011;43000;50.770;6.110;2022-08-19T03:25:37;18.52;;;16.63;;
57125;SDS011;43000;50.770;6.110;2022-08-19T03:28:05;20.20;;;18.08;;
57125;SDS011;43000;50.770;6.110;2022-08-19T03:30:32;17.60;;;15.90;;
57125;SDS011;43000;50.770;6.110;2022-08-19T03:32:59;20.83;;;18.63;;
57125;SDS011;43000;50.770;6.110;2022-08-19T03:35:25;19.20;;;16.33;;
57125;SDS011;43000;50.770;6.110;2022-08-19T03:37:52;19.52;;;17.60;;
57125;SDS011;43000;50.770;6.110;2022-08-19T03:40:19;24.95;;;22.55;;
57125;SDS011;43000;50.770;6.110;2022-08-19T03:42:47;28.83;;;21.40;;
57125;SDS011;43000;50.770;6.110;2022-08-19T03:45:14;19.77;;;17.80;;
57125;SDS011;43000;50.770;6.110;2022-08-19T03:47:40;19.75;;;17.65;;
57125;SDS011;43000;50.770;6.110;2022-08-19T03:50:07;20.27;;;17.90;;
57125;SDS011;43000;50.770;6.110;2022-08-19T03:52:34;26.40;;;23.85;;
57125;SDS011;43000;50.770;6.110;2022-08-19T03:55:02;26.50;;;23.50;;
57125;SDS011;43000;50.770;6.110;2022-08-19T03:57:29;17.92;;;16.08;;
57125;SDS011;43000;50.770;6.110;2022-08-19T03:59:58;22.95;;;20.60;;
57125;SDS011;43000;50.770;6.110;2022-08-19T04:02:25;21.15;;;18.70;;
57125;SDS011;43000;50.770;6.110;2022-08-19T04:04:52;21.65;;;19.35;;
57125;SDS011;43000;50.770;6.110;2022-08-19T04:07:19;29.98;;;26.15;;
57125;SDS011;43000;50.770;6.110;2022-08-19T04:09:46;21.45;;;19.17;;
57125;SDS011;43000;50.770;6.110;2022-08-19T04:12:13;30.00;;;26.65;;
57125;SDS011;43000;50.770;6.110;2022-08-19T04:14:40;25.17;;;19.23;;
57125;SDS011;43000;50.770;6.110;2022-08-19T04:17:08;24.75;;;22.10;;
57125;SDS011;43000;50.770;6.110;2022-08-19T04:19:36;21.30;;;19.13;;
57125;SDS011;43000;50.770;6.110;2022-08-19T04:22:03;22.02;;;19.73;;
57125;SDS011;43000;50.770;6.110;2022-08-19T04:24:32;24.70;;;22.13;;
57125;SDS011;43000;50.770;6.110;2022-08-19T04:26:59;23.40;;;20.70;;
57125;SDS011;43000;50.770;6.110;2022-08-19T04:29:26;31.08;;;26.20;;
57125;SDS011;43000;50.770;6.110;2022-08-19T04:31:55;30.90;;;26.77;;
57125;SDS011;43000;50.770;6.110;2022-08-19T04:34:25;39.63;;;32.17;;
57125;SDS011;43000;50.770;6.110;2022-08-19T04:36:55;40.83;;;34.75;;
57125;SDS011;43000;50.770;6.110;2022-08-19T04:39:23;35.63;;;27.83;;
57125;SDS011;43000;50.770;6.110;2022-08-19T04:42:12;38.92;;;32.78;;
57125;SDS011;43000;50.770;6.110;2022-08-19T04:44:57;36.53;;;27.65;;
57125;SDS011;43000;50.770;6.110;2022-08-19T04:47:24;33.97;;;29.75;;
57125;SDS011;43000;50.770;6.110;2022-08-19T04:49:52;47.08;;;37.22;;
57125;SDS011;43000;50.770;6.110;2022-08-19T04:52:19;46.33;;;37.50;;
57125;SDS011;43000;50.770;6.110;2022-08-19T04:54:45;43.45;;;35.00;;
57125;SDS011;43000;50.770;6.110;2022-08-19T04:57:13;46.55;;;37.13;;
57125;SDS011;43000;50.770;6.110;2022-08-19T04:59:40;56.42;;;44.30;;
57125;SDS011;43000;50.770;6.110;2022-08-19T05:02:07;46.38;;;37.95;;
57125;SDS011;43000;50.770;6.110;2022-08-19T05:04:36;63.80;;;45.88;;
57125;SDS011;43000;50.770;6.110;2022-08-19T05:07:05;65.03;;;49.05;;
57125;SDS011;43000;50.770;6.110;2022-08-19T05:09:32;61.45;;;46.88;;
57125;SDS011;43000;50.770;6.110;2022-08-19T05:11:59;57.38;;;40.88;;
57125;SDS011;43000;50.770;6.110;2022-08-19T05:14:26;53.15;;;40.08;;
57125;SDS011;43000;50.770;6.110;2022-08-19T05:16:53;69.55;;;52.78;;
57125;SDS011;43000;50.770;6.110;2022-08-19T05:19:20;60.15;;;46.90;;
57125;SDS011;43000;50.770;6.110;2022-08-19T05:22:05;51.15;;;39.17;;
57125;SDS011;43000;50.770;6.110;2022-08-19T05:24:49;66.45;;;49.22;;
57125;SDS011;43000;50.770;6.110;2022-08-19T05:27:16;57.65;;;45.08;;
57125;SDS011;43000;50.770;6.110;2022-08-19T05:29:42;65.40;;;46.50;;
57125;SDS011;43000;50.770;6.110;2022-08-19T05:32:09;63.45;;;47.40;;
57125;SDS011;43000;50.770;6.110;2022-08-19T05:34:36;51.63;;;41.85;;
57125;SDS011;43000;50.770;6.110;2022-08-19T05:37:05;57.65;;;43.50;;
57125;SDS011;43000;50.770;6.110;2022-08-19T05:39:34;53.13;;;42.92;;
57125;SDS011;43000;50.770;6.110;2022-08-19T05:42:03;50.03;;;40.35;;
57125;SDS011;43000;50.770;6.110;2022-08-19T05:44:32;49.85;;;40.45;;
57125;SDS011;43000;50.770;6.110;2022-08-19T05:47:02;56.22;;;40.60;;
57125;SDS011;43000;50.770;6.110;2022-08-19T05:49:30;51.50;;;40.97;;
57125;SDS011;43000;50.770;6.110;2022-08-19T05:52:01;51.50;;;40.25;;
57125;SDS011;43000;50.770;6.110;2022-08-19T05:54:30;56.42;;;42.08;;
57125;SDS011;43000;50.770;6.110;2022-08-19T05:56:58;46.17;;;37.30;;
57125;SDS011;43000;50.770;6.110;2022-08-19T05:59:24;52.10;;;38.33;;
57125;SDS011;43000;50.770;6.110;2022-08-19T06:01:51;47.70;;;37.75;;
57125;SDS011;43000;50.770;6.110;2022-08-19T06:04:22;46.80;;;35.58;;
57125;SDS011;43000;50.770;6.110;2022-08-19T06:06:50;43.97;;;34.47;;
57125;SDS011;43000;50.770;6.110;2022-08-19T06:09:19;41.33;;;34.67;;
57125;SDS011;43000;50.770;6.110;2022-08-19T06:11:48;42.60;;;34.45;;
57125;SDS011;43000;50.770;6.110;2022-08-19T06:14:19;41.70;;;32.95;;
57125;SDS011;43000;50.770;6.110;2022-08-19T06:16:47;37.95;;;32.17;;
57125;SDS011;43000;50.770;6.110;2022-08-19T06:19:16;38.67;;;33.08;;
57125;SDS011;43000;50.770;6.110;2022-08-19T06:21:45;35.30;;;29.17;;
57125;SDS011;43000;50.770;6.110;2022-08-19T06:24:14;35.38;;;30.58;;
57125;SDS011;43000;50.770;6.110;2022-08-19T06:26:42;35.95;;;30.38;;
57125;SDS011;43000;50.770;6.110;2022-08-19T06:29:12;43.67;;;33.08;;
57125;SDS011;43000;50.770;6.110;2022-08-19T06:31:41;34.67;;;30.17;;
57125;SDS011;43000;50.770;6.110;2022-08-19T06:34:09;37.17;;;30.75;;
57125;SDS011;43000;50.770;6.110;2022-08-19T06:36:36;38.72;;;31.88;;
57125;SDS011;43000;50.770;6.110;2022-08-19T06:39:06;37.03;;;30.90;;
57125;SDS011;43000;50.770;6.110;2022-08-19T06:41:36;47.38;;;32.35;;
57125;SDS011;43000;50.770;6.110;2022-08-19T06:44:04;37.17;;;30.65;;
57125;SDS011;43000;50.770;6.110;2022-08-19T06:46:32;37.50;;;30.35;;
57125;SDS011;43000;50.770;6.110;2022-08-19T06:48:59;36.50;;;28.63;;
57125;SDS011;43000;50.770;6.110;2022-08-19T06:51:26;35.53;;;29.42;;
57125;SDS011;43000;50.770;6.110;2022-08-19T06:53:54;34.33;;;27.88;;
57125;SDS011;43000;50.770;6.110;2022-08-19T06:56:22;38.28;;;29.30;;
57125;SDS011;43000;50.770;6.110;2022-08-19T06:58:55;40.15;;;31.88;;
57125;SDS011;43000;50.770;6.110;2022-08-19T07:01:22;30.38;;;26.13;;
57125;SDS011;43000;50.770;6.110;2022-08-19T07:03:50;33.88;;;25.05;;
57125;SDS011;43000;50.770;6.110;2022-08-19T07:06:17;31.15;;;23.65;;
57125;SDS011;43000;50.770;6.110;2022-08-19T07:08:45;44.15;;;26.02;;
57125;SDS011;43000;50.770;6.110;2022-08-19T07:11:14;27.90;;;22.02;;
57125;SDS011;43000;50.770;6.110;2022-08-19T07:13:43;33.30;;;22.55;;
57125;SDS011;43000;50.770;6.110;2022-08-19T07:16:11;32.92;;;25.38;;
57125;SDS011;43000;50.770;6.110;2022-08-19T07:18:40;34.83;;;27.73;;
57125;SDS011;43000;50.770;6.110;2022-08-19T07:21:10;42.63;;;33.25;;
57125;SDS011;43000;50.770;6.110;2022-08-19T07:23:38;33.35;;;27.80;;
57125;SDS011;43000;50.770;6.110;2022-08-19T07:26:07;42.17;;;30.42;;
57125;SDS011;43000;50.770;6.110;2022-08-19T07:28:35;44.92;;;33.22;;
57125;SDS011;43000;50.770;6.110;2022-08-19T07:31:04;40.72;;;32.15;;
57125;SDS011;43000;50.770;6.110;2022-08-19T07:33:31;36.17;;;31.27;;
57125;SDS011;43000;50.770;6.110;2022-08-19T07:36:02;47.58;;;35.53;;
57125;SDS011;43000;50.770;6.110;2022-08-19T07:38:30;44.30;;;33.95;;
57125;SDS011;43000;50.770;6.110;2022-08-19T07:40:58;44.22;;;33.90;;
57125;SDS011;43000;50.770;6.110;2022-08-19T07:43:25;50.08;;;37.28;;
57125;SDS011;43000;50.770;6.110;2022-08-19T07:45:52;50.60;;;38.03;;
57125;SDS011;43000;50.770;6.110;2022-08-19T07:48:21;49.85;;;36.58;;
57125;SDS011;43000;50.770;6.110;2022-08-19T07:50:50;43.95;;;36.83;;
57125;SDS011;43000;50.770;6.110;2022-08-19T07:53:17;45.17;;;36.88;;
57125;SDS011;43000;50.770;6.110;2022-08-19T07:55:46;46.00;;;34.72;;
57125;SDS011;43000;50.770;6.110;2022-08-19T07:58:13;43.38;;;36.47;;
57125;SDS011;43000;50.770;6.110;2022-08-19T08:00:42;40.50;;;32.10;;
57125;SDS011;43000;50.770;6.110;2022-08-19T08:03:09;41.05;;;31.80;;
57125;SDS011;43000;50.770;6.110;2022-08-19T08:05:36;38.33;;;33.83;;
57125;SDS011;43000;50.770;6.110;2022-08-19T08:08:20;38.95;;;31.50;;
57125;SDS011;43000;50.770;6.110;2022-08-19T08:11:06;37.08;;;32.20;;
57125;SDS011;43000;50.770;6.110;2022-08-19T08:13:32;35.97;;;29.73;;
57125;SDS011;43000;50.770;6.110;2022-08-19T08:16:00;39.00;;;31.08;;
57125;SDS011;43000;50.770;6.110;2022-08-19T08:18:28;42.38;;;27.70;;
57125;SDS011;43000;50.770;6.110;2022-08-19T08:20:55;36.97;;;27.40;;
57125;SDS011;43000;50.770;6.110;2022-08-19T08:23:22;35.13;;;28.77;;
57125;SDS011;43000;50.770;6.110;2022-08-19T08:25:50;33.42;;;29.13;;
57125;SDS011;43000;50.770;6.110;2022-08-19T08:28:18;34.42;;;30.13;;
57125;SDS011;43000;50.770;6.110;2022-08-19T08:30:45;39.60;;;32.67;;
57125;SDS011;43000;50.770;6.110;2022-08-19T08:33:13;33.30;;;28.95;;
57125;SDS011;43000;50.770;6.110;2022-08-19T08:35:42;34.85;;;31.10;;
57125;SDS011;43000;50.770;6.110;2022-08-19T08:38:10;41.20;;;34.47;;
57125;SDS011;43000;50.770;6.110;2022-08-19T08:40:38;38.60;;;34.20;;
57125;SDS011;43000;50.770;6.110;2022-08-19T08:43:11;38.30;;;34.30;;
57125;SDS011;43000;50.770;6.110;2022-08-19T08:45:49;40.25;;;34.78;;
57125;SDS011;43000;50.770;6.110;2022-08-19T08:48:24;39.85;;;33.38;;
57125;SDS011;43000;50.770;6.110;2022-08-19T08:51:02;44.35;;;35.70;;
57125;SDS011;43000;50.770;6.110;2022-08-19T08:53:31;39.78;;;34.85;;
57125;SDS011;43000;50.770;6.110;2022-08-19T08:56:00;42.38;;;34.58;;
57125;SDS011;43000;50.770;6.110;2022-08-19T08:58:32;38.42;;;34.20;;
57125;SDS011;43000;50.770;6.110;2022-08-19T09:01:09;36.63;;;32.72;;
57125;SDS011;43000;50.770;6.110;2022-08-19T09:03:37;40.30;;;35.83;;
57125;SDS011;43000;50.770;6.110;2022-08-19T09:06:11;47.60;;;39.15;;
57125;SDS011;43000;50.770;6.110;2022-08-19T09:08:43;43.83;;;35.42;;
57125;SDS011;43000;50.770;6.110;2022-08-19T09:11:15;39.50;;;35.22;;
57125;SDS011;43000;50.770;6.110;2022-08-19T09:13:58;40.33;;;34.20;;
57125;SDS011;43000;50.770;6.110;2022-08-19T09:16:33;42.53;;;36.67;;
57125;SDS011;43000;50.770;6.110;2022-08-19T09:19:01;42.50;;;37.47;;
57125;SDS011;43000;50.770;6.110;2022-08-19T09:21:30;41.58;;;34.92;;
57125;SDS011;43000;50.770;6.110;2022-08-19T09:23:57;43.92;;;35.78;;
57125;SDS011;43000;50.770;6.110;2022-08-19T09:26:24;39.03;;;32.72;;
57125;SDS011;43000;50.770;6.110;2022-08-19T09:28:51;34.60;;;30.50;;
57125;SDS011;43000;50.770;6.110;2022-08-19T09:31:22;41.03;;;33.97;;
57125;SDS011;43000;50.770;6.110;2022-08-19T09:33:52;35.65;;;31.38;;
57125;SDS011;43000;50.770;6.110;2022-08-19T09:36:22;35.05;;;30.02;;
57125;SDS011;43000;50.770;6.110;2022-08-19T09:38:51;33.17;;;28.52;;
57125;SDS011;43000;50.770;6.110;2022-08-19T09:41:19;37.65;;;29.15;;
57125;SDS011;43000;50.770;6.110;2022-08-19T09:43:49;35.60;;;27.55;;
57125;SDS011;43000;50.770;6.110;2022-08-19T09:46:18;30.45;;;26.45;;
57125;SDS011;43000;50.770;6.110;2022-08-19T09:48:47;31.02;;;24.38;;
57125;SDS011;43000;50.770;6.110;2022-08-19T09:51:20;30.45;;;25.50;;
57125;SDS011;43000;50.770;6.110;2022-08-19T09:53:49;30.53;;;27.20;;
57125;SDS011;43000;50.770;6.110;2022-08-19T09:56:19;33.92;;;26.95;;
57125;SDS011;43000;50.770;6.110;2022-08-19T09:58:46;31.33;;;27.05;;
57125;SDS011;43000;50.770;6.110;2022-08-19T10:01:17;30.27;;;27.25;;
57125;SDS011;43000;50.770;6.110;2022-08-19T10:03:46;30.80;;;26.20;;
57125;SDS011;43000;50.770;6.110;2022-08-19T10:06:16;31.52;;;25.15;;
57125;SDS011;43000;50.770;6.110;2022-08-19T10:08:43;33.90;;;26.25;;
57125;SDS011;43000;50.770;6.110;2022-08-19T10:11:10;34.97;;;26.35;;
57125;SDS011;43000;50.770;6.110;2022-08-19T10:13:39;26.90;;;23.23;;
57125;SDS011;43000;50.770;6.110;2022-08-19T10:16:07;30.30;;;25.50;;
57125;SDS011;43000;50.770;6.110;2022-08-19T10:18:35;25.88;;;23.13;;
57125;SDS011;43000;50.770;6.110;2022-08-19T10:21:06;26.95;;;24.25;;
57125;SDS011;43000;50.770;6.110;2022-08-19T10:23:34;29.90;;;23.55;;
57125;SDS011;43000;50.770;6.110;2022-08-19T10:26:02;26.30;;;23.27;;
57125;SDS011;43000;50.770;6.110;2022-08-19T10:28:31;24.98;;;21.60;;
57125;SDS011;43000;50.770;6.110;2022-08-19T10:31:01;31.25;;;23.67;;
57125;SDS011;43000;50.770;6.110;2022-08-19T10:33:31;28.70;;;24.08;;
57125;SDS011;43000;50.770;6.110;2022-08-19T10:35:59;30.58;;;23.92;;
57125;SDS011;43000;50.770;6.110;2022-08-19T10:38:27;31.27;;;21.00;;
57125;SDS011;43000;50.770;6.110;2022-08-19T10:40:55;27.45;;;21.10;;
57125;SDS011;43000;50.770;6.110;2022-08-19T10:43:21;27.80;;;21.15;;
57125;SDS011;43000;50.770;6.110;2022-08-19T10:45:51;28.80;;;20.90;;
57125;SDS011;43000;50.770;6.110;2022-08-19T10:48:18;27.38;;;21.20;;
57125;SDS011;43000;50.770;6.110;2022-08-19T10:50:45;24.48;;;20.65;;
57125;SDS011;43000;50.770;6.110;2022-08-19T10:53:31;25.52;;;20.55;;
57125;SDS011;43000;50.770;6.110;2022-08-19T10:55:57;32.72;;;20.75;;
57125;SDS011;43000;50.770;6.110;2022-08-19T10:58:41;33.08;;;21.60;;
57125;SDS011;43000;50.770;6.110;2022-08-19T11:01:08;29.58;;;23.10;;
57125;SDS011;43000;50.770;6.110;2022-08-19T11:03:34;33.65;;;21.85;;
57125;SDS011;43000;50.770;6.110;2022-08-19T11:06:02;26.20;;;20.85;;
57125;SDS011;43000;50.770;6.110;2022-08-19T11:08:31;26.52;;;22.02;;
57125;SDS011;43000;50.770;6.110;2022-08-19T11:11:00;27.38;;;21.83;;
57125;SDS011;43000;50.770;6.110;2022-08-19T11:13:28;29.58;;;24.13;;
57125;SDS011;43000;50.770;6.110;2022-08-19T11:15:56;30.85;;;24.30;;
57125;SDS011;43000;50.770;6.110;2022-08-19T11:18:24;28.17;;;22.08;;
57125;SDS011;43000;50.770;6.110;2022-08-19T11:20:50;27.92;;;23.23;;
57125;SDS011;43000;50.770;6.110;2022-08-19T11:23:17;27.35;;;21.23;;
57125;SDS011;43000;50.770;6.110;2022-08-19T11:25:45;28.88;;;21.63;;
57125;SDS011;43000;50.770;6.110;2022-08-19T11:28:12;26.23;;;22.75;;
57125;SDS011;43000;50.770;6.110;2022-08-19T11:30:39;23.02;;;20.52;;
57125;SDS011;43000;50.770;6.110;2022-08-19T11:33:05;24.90;;;20.30;;
57125;SDS011;43000;50.770;6.110;2022-08-19T11:35:32;27.05;;;22.65;;
57125;SDS011;43000;50.770;6.110;2022-08-19T11:37:58;32.05;;;23.98;;
57125;SDS011;43000;50.770;6.110;2022-08-19T11:40:26;26.88;;;23.17;;
57125;SDS011;43000;50.770;6.110;2022-08-19T11:42:54;33.08;;;26.45;;
57125;SDS011;43000;50.770;6.110;2022-08-19T11:45:21;36.47;;;23.45;;
57125;SDS011;43000;50.770;6.110;2022-08-19T11:47:47;29.33;;;24.52;;
57125;SDS011;43000;50.770;6.110;2022-08-19T11:50:14;29.00;;;24.40;;
57125;SDS011;43000;50.770;6.110;2022-08-19T11:52:42;29.20;;;22.80;;
57125;SDS011;43000;50.770;6.110;2022-08-19T11:55:10;33.13;;;25.33;;
57125;SDS011;43000;50.770;6.110;2022-08-19T11:57:37;30.80;;;21.17;;
57125;SDS011;43000;50.770;6.110;2022-08-19T12:00:07;31.08;;;20.67;;
57125;SDS011;43000;50.770;6.110;2022-08-19T12:02:36;30.13;;;19.70;;
57125;SDS011;43000;50.770;6.110;2022-08-19T12:05:03;23.33;;;19.60;;
57125;SDS011;43000;50.770;6.110;2022-08-19T12:07:30;22.65;;;17.25;;
57125;SDS011;43000;50.770;6.110;2022-08-19T12:09:58;22.05;;;16.58;;
57125;SDS011;43000;50.770;6.110;2022-08-19T12:12:24;20.52;;;15.25;;
57125;SDS011;43000;50.770;6.110;2022-08-19T12:14:51;25.85;;;12.50;;
57125;SDS011;43000;50.770;6.110;2022-08-19T12:17:23;15.98;;;11.80;;
57125;SDS011;43000;50.770;6.110;2022-08-19T12:19:50;13.95;;;12.23;;
57125;SDS011;43000;50.770;6.110;2022-08-19T12:22:16;15.15;;;11.82;;
57125;SDS011;43000;50.770;6.110;2022-08-19T12:24:43;15.05;;;9.57;;
57125;SDS011;43000;50.770;6.110;2022-08-19T12:27:10;13.20;;;9.70;;
57125;SDS011;43000;50.770;6.110;2022-08-19T12:29:36;16.73;;;9.57;;
57125;SDS011;43000;50.770;6.110;2022-08-19T12:32:03;10.73;;;8.93;;
57125;SDS011;43000;50.770;6.110;2022-08-19T12:34:32;12.40;;;8.05;;
57125;SDS011;43000;50.770;6.110;2022-08-19T12:37:03;14.93;;;9.38;;
57125;SDS011;43000;50.770;6.110;2022-08-19T12:39:33;11.95;;;8.63;;
57125;SDS011;43000;50.770;6.110;2022-08-19T12:42:02;12.00;;;8.20;;
57125;SDS011;43000;50.770;6.110;2022-08-19T12:44:30;14.35;;;6.78;;
57125;SDS011;43000;50.770;6.110;2022-08-19T12:46:57;9.88;;;6.45;;
57125;SDS011;43000;50.770;6.110;2022-08-19T12:49:24;8.80;;;6.32;;
57125;SDS011;43000;50.770;6.110;2022-08-19T12:51:52;6.57;;;4.45;;
57125;SDS011;43000;50.770;6.110;2022-08-19T12:54:18;11.40;;;4.65;;
57125;SDS011;43000;50.770;6.110;2022-08-19T12:56:45;7.90;;;3.88;;
57125;SDS011;43000;50.770;6.110;2022-08-19T12:59:12;8.65;;;5.57;;
57125;SDS011;43000;50.770;6.110;2022-08-19T13:01:41;7.80;;;5.25;;
57125;SDS011;43000;50.770;6.110;2022-08-19T13:04:09;6.97;;;4.95;;
57125;SDS011;43000;50.770;6.110;2022-08-19T13:06:36;7.80;;;4.55;;
57125;SDS011;43000;50.770;6.110;2022-08-19T13:09:04;8.00;;;3.95;;
57125;SDS011;43000;50.770;6.110;2022-08-19T13:11:31;7.65;;;4.75;;
57125;SDS011;43000;50.770;6.110;2022-08-19T13:13:59;6.82;;;4.05;;
57125;SDS011;43000;50.770;6.110;2022-08-19T13:16:27;9.10;;;4.32;;
57125;SDS011;43000;50.770;6.110;2022-08-19T13:18:55;8.80;;;5.45;;
57125;SDS011;43000;50.770;6.110;2022-08-19T13:21:24;10.05;;;4.35;;
57125;SDS011;43000;50.770;6.110;2022-08-19T13:23:52;13.38;;;5.22;;
57125;SDS011;43000;50.770;6.110;2022-08-19T13:26:20;8.80;;;5.03;;
57125;SDS011;43000;50.770;6.110;2022-08-19T13:28:47;5.47;;;3.40;;
57125;SDS011;43000;50.770;6.110;2022-08-19T13:31:32;10.75;;;3.03;;
57125;SDS011;43000;50.770;6.110;2022-08-19T13:34:18;12.23;;;3.70;;
57125;SDS011;43000;50.770;6.110;2022-08-19T13:36:52;12.98;;;3.95;;
57125;SDS011;43000;50.770;6.110;2022-08-19T13:39:19;5.35;;;3.45;;
57125;SDS011;43000;50.770;6.110;2022-08-19T13:41:49;4.55;;;3.30;;
57125;SDS011;43000;50.770;6.110;2022-08-19T13:44:16;3.67;;;2.58;;
57125;SDS011;43000;50.770;6.110;2022-08-19T13:46:44;5.72;;;2.95;;
57125;SDS011;43000;50.770;6.110;2022-08-19T13:49:11;11.68;;;3.45;;
57125;SDS011;43000;50.770;6.110;2022-08-19T13:51:40;4.47;;;2.80;;
57125;SDS011;43000;50.770;6.110;2022-08-19T13:54:08;7.38;;;2.63;;
57125;SDS011;43000;50.770;6.110;2022-08-19T13:56:39;4.72;;;3.30;;
57125;SDS011;43000;50.770;6.110;2022-08-19T13:59:08;4.72;;;2.80;;
57125;SDS011;43000;50.770;6.110;2022-08-19T14:01:35;3.63;;;2.72;;
57125;SDS011;43000;50.770;6.110;2022-08-19T14:04:02;4.68;;;2.58;;
57125;SDS011;43000;50.770;6.110;2022-08-19T14:06:30;5.45;;;3.55;;
57125;SDS011;43000;50.770;6.110;2022-08-19T14:08:57;9.90;;;3.38;;
57125;SDS011;43000;50.770;6.110;2022-08-19T14:11:24;6.75;;;3.30;;
57125;SDS011;43000;50.770;6.110;2022-08-19T14:13:52;5.18;;;3.22;;
57125;SDS011;43000;50.770;6.110;2022-08-19T14:16:20;6.45;;;3.90;;
57125;SDS011;43000;50.770;6.110;2022-08-19T14:18:47;3.63;;;3.00;;
57125;SDS011;43000;50.770;6.110;2022-08-19T14:21:14;3.88;;;3.00;;
57125;SDS011;43000;50.770;6.110;2022-08-19T14:23:42;4.47;;;3.60;;
57125;SDS011;43000;50.770;6.110;2022-08-19T14:26:10;9.10;;;3.55;;
57125;SDS011;43000;50.770;6.110;2022-08-19T14:28:39;5.72;;;3.53;;
57125;SDS011;43000;50.770;6.110;2022-08-19T14:31:08;6.65;;;3.45;;
57125;SDS011;43000;50.770;6.110;2022-08-19T14:33:37;5.03;;;3.13;;